Time;durP1;ratioP1;P1;durP2;ratioP2;P2;SDS_P1;SDS_P2;PMS_P1;PMS_P2;Temp;Humidity;BMP_temperature;BMP_pressure;BME280_temperature;BME280_humidity;BME280_pressure;Samples;Min_cycle;Max_cycle;Signal;HPM_P1;HPM_P2
2022/03/21 00:01:18;;;;;;;40.03;29.77;;;;;;;1.11;100.00;101862.56;5028563;28;20136;-59
2022/03/21 00:03:44;;;;;;;41.28;30.42;;;;;;;1.09;100.00;101866.84;5028850;28;20118;-58
2022/03/21 00:06:09;;;;;;;39.15;27.05;;;;;;;0.99;100.00;101871.91;5029674;28;20418;-60
2022/03/21 00:08:35;;;;;;;34.72;26.23;;;;;;;0.93;100.00;101870.97;5028544;28;20025;-58
2022/03/21 00:11:00;;;;;;;31.40;23.58;;;;;;;0.86;100.00;101875.19;5028796;28;20028;-58
2022/03/21 00:13:26;;;;;;;33.90;21.95;;;;;;;0.74;100.00;101851.78;5028765;28;20082;-58
2022/03/21 00:15:52;;;;;;;34.65;24.55;;;;;;;0.74;100.00;101848.31;5029364;28;20031;-58
2022/03/21 00:18:18;;;;;;;35.90;25.08;;;;;;;0.87;100.00;101861.44;5028905;28;20029;-58
2022/03/21 00:20:45;;;;;;;32.78;23.65;;;;;;;0.91;100.00;101852.00;5028535;28;20064;-58
2022/03/21 00:23:12;;;;;;;34.05;22.98;;;;;;;1.13;100.00;101866.03;5029074;28;20086;-58
2022/03/21 00:25:37;;;;;;;35.90;22.20;;;;;;;1.20;100.00;101862.66;5027666;28;20024;-58
2022/03/21 00:28:03;;;;;;;30.67;22.02;;;;;;;1.05;100.00;101841.81;5029776;28;20033;-59
2022/03/21 00:30:29;;;;;;;34.38;23.50;;;;;;;0.90;100.00;101819.19;5029493;28;20346;-59
2022/03/21 00:32:54;;;;;;;30.15;21.45;;;;;;;1.15;100.00;101861.75;5028589;28;20978;-58
2022/03/21 00:35:20;;;;;;;28.38;21.80;;;;;;;1.14;100.00;101865.19;5028744;28;20930;-58
2022/03/21 00:37:46;;;;;;;34.70;22.02;;;;;;;1.13;100.00;101863.44;5027516;28;20033;-58
2022/03/21 00:40:13;;;;;;;32.25;22.90;;;;;;;0.84;100.00;101832.94;5028476;28;20028;-58
2022/03/21 00:42:40;;;;;;;33.10;22.73;;;;;;;0.98;100.00;101866.75;5044214;28;20028;-58
2022/03/21 00:45:12;;;;;;;31.67;23.00;;;;;;;0.90;100.00;101874.41;5028400;28;20082;-59
2022/03/21 00:47:38;;;;;;;31.50;21.73;;;;;;;0.50;100.00;101826.47;5028979;28;20043;-59
2022/03/21 00:50:08;;;;;;;30.95;21.95;;;;;;;0.42;100.00;101834.94;5028242;28;20028;-58
2022/03/21 00:53:03;;;;;;;29.20;21.25;;;;;;;0.58;100.00;101874.78;5027510;28;20998;-58
2022/03/21 00:55:31;;;;;;;;;;;;;;;0.27;100.00;101833.00;5028126;28;20040;-58
2022/03/21 00:57:58;;;;;;;32.00;21.88;;;;;;;0.51;100.00;101886.75;5026996;28;19982;-59
2022/03/21 01:00:26;;;;;;;30.10;21.77;;;;;;;0.34;100.00;101863.25;5027872;28;20139;-58
2022/03/21 01:02:55;;;;;;;34.10;22.17;;;;;;;0.43;100.00;101878.91;5028067;28;20920;-59
2022/03/21 01:05:22;;;;;;;25.20;20.23;;;;;;;0.02;100.00;101814.53;5027272;28;20222;-59
2022/03/21 01:07:48;;;;;;;28.15;22.20;;;;;;;0.30;100.00;101873.53;5027129;28;20136;-59
2022/03/21 01:10:16;;;;;;;27.50;21.13;;;;;;;0.28;100.00;101878.66;5025687;28;20028;-59
2022/03/21 01:12:43;;;;;;;28.98;20.75;;;;;;;0.25;100.00;101872.59;5026530;28;20029;-59
2022/03/21 01:15:09;;;;;;;31.25;20.85;;;;;;;0.18;100.00;101866.44;5026764;28;20028;-59
2022/03/21 01:17:35;;;;;;;27.17;19.13;;;;;;;0.24;100.00;101878.59;5026794;28;20901;-59
2022/03/21 01:20:01;;;;;;;24.75;18.02;;;;;;;0.21;100.00;101882.00;5027891;28;20032;-59
2022/03/21 01:22:26;;;;;;;26.15;19.77;;;;;;;0.17;100.00;101884.53;5028792;28;20024;-58
2022/03/21 01:24:52;;;;;;;29.90;19.05;;;;;;;0.09;100.00;101881.81;5026777;28;20956;-59
2022/03/21 01:27:17;;;;;;;30.58;19.77;;;;;;;0.09;100.00;101889.56;5026843;28;20571;-58
2022/03/21 01:29:42;;;;;;;29.48;19.25;;;;;;;0.00;100.00;101874.78;5026611;28;20088;-58
2022/03/21 01:32:08;;;;;;;29.08;20.63;;;;;;;0.07;100.00;101891.25;5027295;28;20837;-58
2022/03/21 01:34:33;;;;;;;25.70;19.20;;;;;;;0.06;100.00;101886.06;5026657;28;20048;-59
2022/03/21 01:36:59;;;;;;;25.80;19.95;;;;;;;0.05;100.00;101872.28;5026720;28;20037;-58
2022/03/21 01:39:24;;;;;;;30.58;19.60;;;;;;;0.24;100.00;101889.81;5026498;28;20021;-58
2022/03/21 01:41:50;;;;;;;24.42;17.88;;;;;;;0.29;100.00;101874.38;5027760;28;20032;-59
2022/03/21 01:44:17;;;;;;;26.08;18.63;;;;;;;0.18;100.00;101847.50;5026310;28;20896;-58
2022/03/21 01:46:44;;;;;;;30.02;19.90;;;;;;;0.22;100.00;101836.38;5026486;28;20034;-58
2022/03/21 01:49:10;;;;;;;28.88;18.73;;;;;;;0.66;100.00;101888.72;5026244;28;20028;-59
2022/03/21 01:51:37;;;;;;;31.70;19.92;;;;;;;0.73;100.00;101886.22;5028409;28;20807;-58
2022/03/21 01:56:49;;;;;;;25.13;18.90;;;;;;;0.61;100.00;101823.97;5024846;28;20099;-58
2022/03/21 01:59:15;;;;;;;24.45;18.65;;;;;;;0.91;100.00;101881.28;5006263;28;20024;-58
2022/03/21 02:01:42;;;;;;;24.58;17.63;;;;;;;0.95;100.00;101885.66;5006933;28;20396;-58
2022/03/21 02:04:09;;;;;;;23.85;17.67;;;;;;;0.62;100.00;101833.50;5006319;28;20028;-58
2022/03/21 02:06:34;;;;;;;29.15;18.08;;;;;;;0.98;100.00;101883.09;5006058;28;20029;-58
2022/03/21 02:09:01;;;;;;;25.20;17.58;;;;;;;1.04;100.00;101892.69;5007747;28;20025;-58
2022/03/21 02:11:28;;;;;;;29.55;17.70;;;;;;;1.03;100.00;101889.22;5006899;28;20036;-58
2022/03/21 02:13:55;;;;;;;25.42;17.58;;;;;;;0.93;100.00;101892.53;5008364;28;20029;-59
2022/03/21 02:16:22;;;;;;;20.88;16.50;;;;;;;0.91;100.00;101889.06;5006090;28;20060;-59
2022/03/21 02:18:48;;;;;;;23.80;17.55;;;;;;;0.87;100.00;101886.41;5008358;28;20055;-59
2022/03/21 02:21:24;;;;;;;21.88;16.27;;;;;;;0.82;100.00;101888.06;5007852;28;20033;-59
2022/03/21 02:23:56;;;;;;;23.70;17.45;;;;;;;0.68;100.00;101880.13;5006920;28;20024;-58
2022/03/21 02:26:22;;;;;;;23.27;17.00;;;;;;;0.28;100.00;101818.34;5006154;28;20080;-58
2022/03/21 02:28:48;;;;;;;21.75;16.40;;;;;;;0.53;100.00;101877.34;5006008;28;20025;-58
2022/03/21 02:31:15;;;;;;;21.67;16.45;;;;;;;0.50;100.00;101890.22;5004266;28;20130;-58
2022/03/21 02:33:41;;;;;;;25.20;16.48;;;;;;;0.27;100.00;101850.25;5007307;28;20029;-59
2022/03/21 02:36:07;;;;;;;24.75;17.67;;;;;;;0.43;100.00;101875.47;5006310;28;20032;-58
2022/03/21 02:38:32;;;;;;;23.10;16.98;;;;;;;0.50;100.00;101879.88;5007336;28;20029;-59
2022/03/21 02:40:58;;;;;;;26.55;18.75;;;;;;;0.47;100.00;101880.69;5004802;28;20820;-59
2022/03/21 02:43:23;;;;;;;26.25;17.73;;;;;;;0.44;100.00;101880.63;5005663;28;20910;-58
2022/03/21 02:45:48;;;;;;;23.55;15.95;;;;;;;0.44;100.00;101874.63;5005440;28;20040;-58
2022/03/21 02:48:14;;;;;;;22.30;16.00;;;;;;;0.39;100.00;101876.25;5005790;28;20057;-58
2022/03/21 02:51:03;;;;;;;25.58;18.25;;;;;;;0.46;100.00;101883.25;5005923;28;20841;-58
2022/03/21 02:53:30;;;;;;;33.45;19.15;;;;;;;0.51;100.00;101886.75;5002537;28;20079;-59
2022/03/21 02:55:56;;;;;;;29.13;19.73;;;;;;;0.63;100.00;101883.50;5005366;28;20029;-59
2022/03/21 02:58:21;;;;;;;29.45;19.08;;;;;;;0.74;100.00;101880.22;5006300;28;20021;-58
2022/03/21 03:00:47;;;;;;;25.85;18.67;;;;;;;0.84;100.00;101878.63;5008264;28;20086;-58
2022/03/21 03:03:12;;;;;;;27.00;19.48;;;;;;;0.95;100.00;101877.03;5007143;28;20097;-58
2022/03/21 03:05:38;;;;;;;24.35;18.48;;;;;;;1.11;100.00;101888.44;5005526;28;20956;-58
2022/03/21 03:08:03;;;;;;;33.30;21.38;;;;;;;1.26;100.00;101881.72;5007215;28;20028;-58
2022/03/21 03:10:30;;;;;;;31.95;20.50;;;;;;;1.39;100.00;101885.31;5005200;28;20778;-59
2022/03/21 03:12:55;;;;;;;33.20;21.77;;;;;;;1.48;100.00;101882.84;5006749;28;20091;-59
2022/03/21 03:15:21;;;;;;;32.22;21.25;;;;;;;1.45;100.00;101872.47;5005632;28;20036;-59
2022/03/21 03:17:46;;;;;;;29.50;22.08;;;;;;;1.52;100.00;101872.50;5005359;28;20036;-59
2022/03/21 03:20:12;;;;;;;25.45;20.17;;;;;;;1.63;100.00;101882.13;5005301;28;20092;-58
2022/03/21 03:22:38;;;;;;;32.58;21.25;;;;;;;1.72;100.00;101877.03;5005472;28;20033;-59
2022/03/21 03:25:04;;;;;;;28.30;20.88;;;;;;;1.65;100.00;101844.16;5005606;28;20036;-59
2022/03/21 03:27:31;;;;;;;25.92;19.48;;;;;;;1.87;100.00;101893.59;5006556;28;20101;-58
2022/03/21 03:29:57;;;;;;;34.45;21.17;;;;;;;1.78;100.00;101872.78;5005364;28;20056;-59
2022/03/21 03:32:23;;;;;;;37.83;21.65;;;;;;;1.39;100.00;101816.28;5007079;28;20029;-58
2022/03/21 03:34:48;;;;;;;27.77;19.95;;;;;;;1.64;100.00;101878.69;5006394;28;20024;-59
2022/03/21 03:37:14;;;;;;;28.40;21.10;;;;;;;1.63;100.00;101889.88;5004201;28;20032;-58
2022/03/21 03:39:39;;;;;;;28.17;19.98;;;;;;;1.57;100.00;101898.47;5005289;28;20184;-58
2022/03/21 03:42:05;;;;;;;31.45;19.98;;;;;;;1.43;100.00;101884.50;5006202;28;20035;-59
2022/03/21 03:44:30;;;;;;;27.25;19.90;;;;;;;1.37;100.00;101902.56;5009667;28;20028;-58
2022/03/21 03:46:55;;;;;;;32.60;21.25;;;;;;;1.24;100.00;101892.94;5008774;28;20874;-58
2022/03/21 03:49:21;;;;;;;25.98;20.77;;;;;;;1.20;100.00;101896.31;5011268;28;20134;-59
2022/03/21 03:51:46;;;;;;;30.45;21.15;;;;;;;1.13;100.00;101904.84;5010245;28;20037;-59
2022/03/21 03:54:12;;;;;;;32.20;19.77;;;;;;;1.03;100.00;101896.13;5010329;28;20747;-58
2022/03/21 03:56:37;;;;;;;27.63;20.02;;;;;;;0.94;100.00;101894.28;5009167;28;20988;-58
2022/03/21 03:59:02;;;;;;;30.63;20.45;;;;;;;0.81;100.00;101886.34;5009600;28;20160;-58
2022/03/21 04:01:28;;;;;;;27.85;21.63;;;;;;;0.79;100.00;101899.25;5009276;28;20021;-58
2022/03/21 04:03:53;;;;;;;29.65;22.85;;;;;;;0.90;100.00;101908.03;5011394;28;20757;-58
2022/03/21 04:06:21;;;;;;;33.22;21.85;;;;;;;0.98;100.00;101911.56;5007933;28;20071;-58
2022/03/21 04:08:48;;;;;;;33.10;22.60;;;;;;;0.93;100.00;101900.31;5008678;28;20087;-59
2022/03/21 04:11:14;;;;;;;30.77;21.83;;;;;;;0.93;100.00;101909.78;5011330;28;20037;-58
2022/03/21 04:13:40;;;;;;;27.30;20.70;;;;;;;0.87;100.00;101910.59;5007293;28;20128;-59
2022/03/21 04:16:06;;;;;;;29.63;21.13;;;;;;;0.85;100.00;101908.78;5008643;28;20055;-58
2022/03/21 04:18:31;;;;;;;29.63;22.20;;;;;;;0.84;100.00;101910.53;5008587;28;20034;-59
2022/03/21 04:20:57;;;;;;;30.65;22.58;;;;;;;0.55;100.00;101856.66;5010698;28;20879;-58
2022/03/21 04:23:22;;;;;;;32.88;22.88;;;;;;;0.89;100.00;101914.03;5009386;28;20947;-58
2022/03/21 04:25:48;;;;;;;30.75;21.73;;;;;;;0.35;100.00;101822.78;5008207;28;20079;-59
2022/03/21 04:28:14;;;;;;;29.42;20.80;;;;;;;0.87;100.00;101912.28;5006912;28;20025;-58
2022/03/21 04:30:41;;;;;;;31.45;20.80;;;;;;;0.40;100.00;101823.72;5007743;28;20029;-58
2022/03/21 04:33:09;;;;;;;30.13;21.27;;;;;;;0.89;100.00;101906.28;5008657;28;20056;-59
2022/03/21 04:35:34;;;;;;;32.22;21.33;;;;;;;0.91;100.00;101909.75;5008129;28;20033;-58
2022/03/21 04:38:00;;;;;;;29.75;20.00;;;;;;;0.92;100.00;101908.91;5009927;28;20040;-58
2022/03/21 04:40:26;;;;;;;36.78;21.25;;;;;;;0.93;100.00;101908.06;5023261;28;21076;-59
2022/03/21 04:42:51;;;;;;;30.27;21.42;;;;;;;0.84;100.00;101895.03;5007972;28;20032;-58
2022/03/21 04:45:17;;;;;;;32.42;21.38;;;;;;;0.77;100.00;101900.09;5008891;28;20025;-58
2022/03/21 04:47:43;;;;;;;33.65;21.20;;;;;;;0.71;100.00;101903.44;5006468;28;20143;-58
2022/03/21 04:50:09;;;;;;;41.13;23.90;;;;;;;0.74;100.00;101916.44;5008032;28;20021;-59
2022/03/21 04:52:35;;;;;;;30.60;22.73;;;;;;;0.65;100.00;101918.00;5007201;28;20132;-59
2022/03/21 04:55:01;;;;;;;29.63;21.88;;;;;;;0.59;100.00;101911.03;5006630;28;20051;-58
2022/03/21 04:57:26;;;;;;;29.58;22.55;;;;;;;0.52;100.00;101912.66;5007359;28;20029;-58
2022/03/21 04:59:53;;;;;;;31.90;20.65;;;;;;;0.49;100.00;101922.09;5008214;28;20044;-58
2022/03/21 05:02:19;;;;;;;28.27;21.60;;;;;;;0.45;100.00;101922.88;5006153;28;20033;-58
2022/03/21 05:04:44;;;;;;;29.85;22.08;;;;;;;0.33;100.00;101914.94;5007282;28;20389;-58
2022/03/21 05:07:16;;;;;;;33.42;23.02;;;;;;;0.34;100.00;101934.75;5006898;28;20029;-59
2022/03/21 05:09:41;;;;;;;34.30;24.15;;;;;;;0.31;100.00;101921.78;5007320;28;20029;-58
2022/03/21 05:12:08;;;;;;;32.35;22.70;;;;;;;0.28;100.00;101925.19;5006917;28;20237;-58
2022/03/21 05:14:34;;;;;;;34.30;21.73;;;;;;;0.22;100.00;101929.41;5006948;28;20028;-59
2022/03/21 05:17:02;;;;;;;29.92;19.92;;;;;;;-0.02;100.00;101902.31;5007513;28;20033;-59
2022/03/21 05:19:31;;;;;;;31.65;21.85;;;;;;;0.09;100.00;101927.44;5006480;28;20025;-59
2022/03/21 05:21:57;;;;;;;35.85;22.65;;;;;;;0.05;100.00;101925.66;5006590;28;20068;-59
2022/03/21 05:32:34;;;;;;;31.52;23.02;;;;;;;-0.09;100.00;101915.97;5007042;28;20095;-58
2022/03/21 05:37:43;;;;;;;37.92;24.48;;;;;;;-0.11;100.00;101930.56;5006494;28;20975;-59
2022/03/21 05:42:55;;;;;;;;;;;;;;;-0.11;100.00;101940.03;5006834;28;20971;-59
2022/03/21 05:45:20;;;;;;;39.13;23.65;;;;;;;-0.29;100.00;101904.41;5007267;28;20888;-58
2022/03/21 05:50:37;;;;;;;36.53;25.08;;;;;;;-0.07;100.00;101937.50;5006443;28;20179;-58
2022/03/21 05:53:04;;;;;;;38.70;27.30;;;;;;;-0.29;100.00;101891.50;5005836;28;20033;-58
2022/03/21 05:55:30;;;;;;;38.83;25.83;;;;;;;0.08;100.00;101949.84;5008685;28;20122;-59
2022/03/21 05:57:56;;;;;;;36.00;25.00;;;;;;;0.00;100.00;101929.03;5007951;28;20144;-59
2022/03/21 06:00:22;;;;;;;39.17;26.85;;;;;;;0.14;100.00;101938.72;5007827;28;20025;-58
2022/03/21 06:02:51;;;;;;;37.40;26.02;;;;;;;0.20;100.00;101941.44;5006800;28;20029;-59
2022/03/21 06:05:17;;;;;;;37.75;25.48;;;;;;;0.21;100.00;101932.81;5006104;28;20079;-59
2022/03/21 06:07:43;;;;;;;35.58;25.38;;;;;;;0.24;100.00;101933.72;5007932;28;20098;-58
2022/03/21 06:10:08;;;;;;;39.35;25.55;;;;;;;0.32;100.00;101937.31;5006047;28;20827;-58
2022/03/21 06:12:34;;;;;;;40.17;26.25;;;;;;;0.41;100.00;101945.22;5006166;28;20140;-59
2022/03/21 06:14:59;;;;;;;41.95;28.45;;;;;;;0.36;100.00;101921.03;5010931;28;20035;-58
2022/03/21 06:17:25;;;;;;;43.38;29.30;;;;;;;0.61;100.00;101942.94;5026136;28;20028;-58
2022/03/21 06:19:51;;;;;;;35.13;26.40;;;;;;;0.53;100.00;101926.47;5025580;28;20043;-59
2022/03/21 06:22:16;;;;;;;37.15;25.45;;;;;;;0.74;100.00;101952.66;5007319;28;20094;-58
2022/03/21 06:24:42;;;;;;;40.22;26.58;;;;;;;0.61;100.00;101929.16;5007004;28;20097;-58
2022/03/21 06:27:07;;;;;;;44.83;29.70;;;;;;;0.82;100.00;101961.38;5007761;28;20044;-58
2022/03/21 06:29:32;;;;;;;34.35;25.98;;;;;;;0.90;100.00;101959.78;5006518;28;20028;-59
2022/03/21 06:31:58;;;;;;;41.75;28.65;;;;;;;1.01;100.00;101958.19;5007474;28;20039;-59
2022/03/21 06:34:23;;;;;;;41.25;28.23;;;;;;;1.10;100.00;101951.41;5007211;28;20032;-59
2022/03/21 06:36:49;;;;;;;46.88;31.55;;;;;;;1.24;100.00;101944.69;5006313;28;20029;-59
2022/03/21 06:39:15;;;;;;;52.80;30.92;;;;;;;1.44;100.00;101966.53;5007800;28;20802;-58
2022/03/21 06:41:44;;;;;;;41.25;29.35;;;;;;;1.46;100.00;101949.28;5005193;28;20830;-58
2022/03/21 06:44:09;;;;;;;43.17;28.75;;;;;;;1.66;100.00;101960.72;5005300;28;20043;-58
2022/03/21 06:46:35;;;;;;;42.33;29.60;;;;;;;1.75;100.00;101953.09;5005094;28;20029;-59
2022/03/21 06:49:00;;;;;;;42.35;30.90;;;;;;;1.97;100.00;101962.81;5006692;28;20044;-59
2022/03/21 06:51:26;;;;;;;40.42;30.20;;;;;;;1.97;100.00;101944.66;5005593;28;20028;-59
2022/03/21 06:53:51;;;;;;;44.03;30.90;;;;;;;2.22;100.00;101968.22;5005884;28;20036;-59
2022/03/21 06:56:17;;;;;;;42.70;29.92;;;;;;;2.34;100.00;101965.72;5005799;28;20025;-59
2022/03/21 06:58:42;;;;;;;49.75;30.23;;;;;;;2.41;100.00;101962.34;5005976;28;20091;-59
2022/03/21 07:01:07;;;;;;;43.13;30.33;;;;;;;2.57;100.00;101966.78;5012719;28;20035;-59
2022/03/21 07:03:33;;;;;;;42.65;30.48;;;;;;;2.69;100.00;101966.88;5025150;28;20108;-59
2022/03/21 07:05:59;;;;;;;44.53;31.73;;;;;;;2.84;100.00;101974.75;5025456;28;20024;-59
2022/03/21 07:08:24;;;;;;;46.67;29.65;;;;;;;2.94;100.00;101973.13;5026971;28;20871;-59
2022/03/21 07:10:49;;;;;;;41.33;29.08;;;;;;;2.69;100.00;101908.94;5026678;28;20122;-58
2022/03/21 07:13:15;;;;;;;50.28;29.92;;;;;;;3.20;100.00;101963.75;5024288;28;20067;-59
2022/03/21 07:15:41;;;;;;;42.00;29.33;;;;;;;3.38;100.00;101973.34;5025855;28;20025;-59
2022/03/21 07:18:07;;;;;;;38.50;28.88;;;;;;;3.57;100.00;101980.34;5028952;28;20843;-59
2022/03/21 07:20:33;;;;;;;37.50;26.95;;;;;;;3.75;100.00;101972.59;5029081;28;20094;-59
2022/03/21 07:22:59;;;;;;;34.80;25.77;;;;;;;3.90;100.00;101982.19;5031086;28;20089;-59
2022/03/21 07:25:25;;;;;;;38.90;26.67;;;;;;;3.85;100.00;101957.94;5030634;28;20039;-59
2022/03/21 07:27:51;;;;;;;34.00;24.52;;;;;;;4.15;100.00;101988.31;5029339;28;20028;-59
2022/03/21 07:30:17;;;;;;;36.58;23.85;;;;;;;4.28;100.00;101990.06;5028945;28;20884;-58
2022/03/21 07:32:43;;;;;;;37.67;26.08;;;;;;;4.43;100.00;101990.94;5029099;28;20032;-58
2022/03/21 07:35:09;;;;;;;34.92;23.58;;;;;;;4.55;100.00;101974.47;5029338;28;20024;-59
2022/03/21 07:37:42;;;;;;;29.83;24.10;;;;;;;4.77;100.00;101991.81;5029730;28;20029;-59
2022/03/21 07:40:10;;;;;;;39.72;25.30;;;;;;;4.92;100.00;101999.59;5029515;28;20030;-58
2022/03/21 07:42:37;;;;;;;31.98;22.23;;;;;;;5.09;100.00;102004.78;5032173;28;20068;-59
2022/03/21 07:47:47;;;;;;;37.13;21.48;;;;;;;5.42;100.00;101996.00;5028793;28;20047;-58
2022/03/21 07:50:12;;;;;;;26.60;19.85;;;;;;;5.51;100.00;101981.19;5028302;28;20036;-59
2022/03/21 07:52:38;;;;;;;28.40;20.90;;;;;;;5.72;100.00;101998.50;5029118;28;20036;-59
2022/03/21 07:55:03;;;;;;;25.67;19.40;;;;;;;5.62;100.00;101955.94;5028338;28;20886;-59
2022/03/21 07:57:29;;;;;;;24.30;17.98;;;;;;;6.11;100.00;102003.56;5029537;28;20024;-59
2022/03/21 07:59:54;;;;;;;24.35;16.55;;;;;;;6.07;100.00;101980.97;5028941;28;20031;-59
2022/03/21 08:02:21;;;;;;;25.15;18.23;;;;;;;6.35;100.00;101996.44;5029176;28;20095;-59
2022/03/21 08:04:48;;;;;;;21.50;17.25;;;;;;;6.49;100.00;102010.25;5052205;28;20037;-59
2022/03/21 08:07:14;;;;;;;22.08;16.52;;;;;;;6.63;100.00;102004.03;5030122;28;20136;-59
2022/03/21 08:09:39;;;;;;;24.20;16.65;;;;;;;6.77;100.00;101996.06;5027916;28;20262;-59
2022/03/21 08:12:05;;;;;;;19.70;15.80;;;;;;;6.98;100.00;102000.25;5027614;28;20840;-59
2022/03/21 08:14:31;;;;;;;18.17;14.02;;;;;;;7.07;100.00;101990.56;5028187;28;20028;-59
2022/03/21 08:16:56;;;;;;;21.50;14.65;;;;;;;7.34;100.00;102014.66;5029444;28;20498;-59
2022/03/21 08:19:24;;;;;;;25.95;14.30;;;;;;;7.49;100.00;102014.50;5028999;28;20199;-58
2022/03/21 08:21:51;;;;;;;19.17;13.52;;;;;;;7.57;100.00;102015.28;5027678;28;20036;-58
2022/03/21 08:24:16;;;;;;;16.92;14.05;;;;;;;7.64;100.00;102014.31;5029606;28;20048;-58
2022/03/21 08:26:43;;;;;;;19.23;13.98;;;;;;;7.70;100.00;102024.72;5028788;28;20923;-58
2022/03/21 08:29:08;;;;;;;20.45;14.38;;;;;;;7.47;100.00;101958.75;5027780;28;20034;-59
2022/03/21 08:31:34;;;;;;;16.25;13.25;;;;;;;7.88;100.00;102021.84;5026048;28;20895;-59
2022/03/21 08:33:59;;;;;;;21.00;14.27;;;;;;;7.84;100.00;102001.84;5028757;28;20044;-59
2022/03/21 08:36:24;;;;;;;23.75;15.05;;;;;;;8.02;100.00;102017.31;5027994;28;20098;-59
2022/03/21 08:38:50;;;;;;;23.77;14.30;;;;;;;8.09;100.00;102013.72;5029228;28;20035;-59
2022/03/21 08:41:16;;;;;;;20.92;13.77;;;;;;;8.17;100.00;102014.50;5027665;28;20855;-59
2022/03/21 08:43:42;;;;;;;20.63;14.55;;;;;;;8.22;100.00;102002.19;5027196;28;20803;-59
2022/03/21 08:46:07;;;;;;;25.92;14.13;;;;;;;8.45;100.00;102011.50;5026954;28;20021;-59
2022/03/21 08:51:18;;;;;;;25.30;14.90;;;;;;;8.83;100.00;102009.09;5027307;28;20047;-59
2022/03/21 08:53:44;;;;;;;20.13;13.95;;;;;;;8.92;100.00;101998.44;5028452;28;20036;-59
2022/03/21 08:56:09;;;;;;;17.33;14.55;;;;;;;9.02;100.00;102000.00;5027975;28;20040;-59
2022/03/21 08:58:35;;;;;;;23.65;14.93;;;;;;;9.31;100.00;102011.72;5027240;28;20024;-59
2022/03/21 09:01:01;;;;;;;26.98;14.43;;;;;;;9.41;100.00;102002.78;5028030;28;20028;-59
2022/03/21 09:03:26;;;;;;;20.13;13.98;;;;;;;9.56;100.00;102008.63;5028178;28;20028;-58
2022/03/21 09:05:52;;;;;;;18.38;13.32;;;;;;;9.63;100.00;101991.00;5027953;28;20315;-59
2022/03/21 09:08:17;;;;;;;24.88;15.70;;;;;;;9.95;100.00;102011.28;5027384;28;20035;-59
2022/03/21 09:10:43;;;;;;;18.25;13.48;;;;;;;10.24;100.00;102001.00;5026804;28;20143;-59
2022/03/21 09:13:08;;;;;;;18.88;13.73;;;;;;;10.43;100.00;101996.22;5026528;28;20977;-59
2022/03/21 09:15:34;;;;;;;18.63;12.95;;;;;;;10.61;100.00;101993.97;5028892;28;20036;-59
2022/03/21 09:18:01;;;;;;;18.55;13.57;;;;;;;10.55;100.00;101967.00;5027973;28;20090;-59
2022/03/21 09:20:26;;;;;;;17.35;12.50;;;;;;;10.86;100.00;101996.00;5026324;28;20040;-59
2022/03/21 09:22:52;;;;;;;19.13;12.98;;;;;;;10.97;100.00;102005.34;5026923;28;20800;-59
2022/03/21 09:25:17;;;;;;;23.80;13.80;;;;;;;11.09;100.00;101991.88;5027661;28;20878;-58
2022/03/21 09:27:43;;;;;;;22.20;12.80;;;;;;;11.28;100.00;101998.38;5027521;28;20033;-58
2022/03/21 09:30:10;;;;;;;20.67;12.32;;;;;;;11.45;100.00;101994.41;5028270;28;20044;-59
2022/03/21 09:32:35;;;;;;;14.57;11.65;;;;;;;11.63;100.00;101988.59;5026348;28;20365;-59
2022/03/21 09:35:01;;;;;;;16.60;12.13;;;;;;;11.80;100.00;101996.91;5026712;28;20032;-59
2022/03/21 09:37:26;;;;;;;22.70;12.88;;;;;;;11.93;100.00;101990.38;5027194;28;20049;-58
2022/03/21 09:39:52;;;;;;;15.88;12.27;;;;;;;12.08;100.00;101986.41;5027024;28;20931;-59
2022/03/21 09:42:20;;;;;;;21.42;12.90;;;;;;;12.19;100.00;101990.44;5028883;28;20029;-59
2022/03/21 09:44:47;;;;;;;23.40;13.10;;;;;;;12.26;100.00;101991.13;5024811;28;20930;-59
2022/03/21 09:49:58;;;;;;;19.48;12.38;;;;;;;12.57;100.00;101989.19;5026378;28;20195;-59
2022/03/21 09:52:24;;;;;;;15.27;11.15;;;;;;;12.73;100.00;101986.94;5027585;28;20305;-59
2022/03/21 09:54:52;;;;;;;16.80;12.88;;;;;;;12.80;100.00;101983.19;5041558;28;20029;-59
2022/03/21 09:57:18;;;;;;;17.40;12.60;;;;;;;12.87;100.00;101984.69;5025925;28;20032;-59
2022/03/21 09:59:44;;;;;;;16.60;11.18;;;;;;;12.93;100.00;101976.56;5027286;28;20043;-59
2022/03/21 10:02:16;;;;;;;21.35;12.35;;;;;;;12.97;100.00;101972.91;5025830;28;20033;-59
2022/03/21 10:04:42;;;;;;;18.85;12.55;;;;;;;13.14;100.00;101973.22;5040965;28;20039;-59
2022/03/21 10:07:07;;;;;;;16.50;11.93;;;;;;;13.31;100.00;101978.72;5025369;28;20028;-59
2022/03/21 10:09:33;;;;;;;20.17;12.02;;;;;;;13.30;100.00;101971.75;5027471;28;20020;-59
2022/03/21 10:11:58;;;;;;;24.30;11.88;;;;;;;13.39;100.00;101957.31;5026071;28;20086;-59
2022/03/21 10:14:32;;;;;;;19.13;12.57;;;;;;;13.54;100.00;101974.41;5026070;28;20033;-59
2022/03/21 10:17:06;;;;;;;17.13;11.77;;;;;;;13.67;100.00;101975.66;5026115;28;20880;-59
2022/03/21 10:19:45;;;;;;;17.13;11.02;;;;;;;13.87;100.00;101974.91;5026559;28;20038;-59
2022/03/21 10:22:12;;;;;;;18.10;14.32;;;;;;;13.96;100.00;101985.97;5026698;28;20032;-59
2022/03/21 10:24:43;;;;;;;21.42;14.10;;;;;;;14.07;100.00;101982.91;5027805;28;20143;-59
2022/03/21 10:27:38;;;;;;;17.10;12.75;;;;;;;14.23;100.00;101968.16;5026728;28;20043;-59
2022/03/21 10:30:11;;;;;;;27.42;13.55;;;;;;;14.30;100.00;101969.63;5027031;28;20028;-59
2022/03/21 10:32:46;;;;;;;15.25;11.85;;;;;;;14.17;100.00;101953.41;5026685;28;20407;-59
2022/03/21 10:35:20;;;;;;;20.15;12.77;;;;;;;14.20;100.00;101942.72;5026402;28;20918;-59
2022/03/21 10:37:52;;;;;;;20.08;12.95;;;;;;;14.47;100.00;101971.63;5026015;28;20032;-59
2022/03/21 10:40:31;;;;;;;19.33;12.48;;;;;;;14.53;100.00;101971.41;5025921;28;20880;-59
2022/03/21 10:43:03;;;;;;;28.40;13.07;;;;;;;14.61;100.00;101969.28;5025965;28;20029;-59
2022/03/21 10:45:49;;;;;;;19.80;13.23;;;;;;;14.75;100.00;101966.91;5026548;28;20033;-59
2022/03/21 10:48:20;;;;;;;16.10;12.02;;;;;;;14.76;100.00;101943.03;5027296;28;20032;-59
2022/03/21 10:50:47;;;;;;;18.60;13.05;;;;;;;15.04;100.00;101974.47;5027929;28;20016;-59
2022/03/21 10:53:15;;;;;;;20.33;12.48;;;;;;;15.12;100.00;101977.66;5027610;28;20100;-59
2022/03/21 10:55:44;;;;;;;13.70;11.18;;;;;;;15.26;100.00;101972.59;5030617;28;20035;-57
2022/03/21 10:58:10;;;;;;;16.40;12.55;;;;;;;15.18;100.00;101939.44;5032137;28;20025;-57
2022/03/21 11:00:35;;;;;;;17.20;13.10;;;;;;;15.34;100.00;101951.91;5017348;28;20033;-58
2022/03/21 11:03:09;;;;;;;21.02;11.82;;;;;;;15.49;100.00;101960.13;5035493;28;20033;-57
2022/03/21 11:05:39;;;;;;;14.77;11.38;;;;;;;15.61;100.00;101959.59;5020116;28;20037;-58
2022/03/21 11:08:05;;;;;;;21.42;11.10;;;;;;;15.66;100.00;101941.69;5032039;28;20024;-57
2022/03/21 11:10:31;;;;;;;19.75;11.43;;;;;;;15.79;98.42;101959.59;5026099;28;20032;-57
2022/03/21 11:12:58;;;;;;;17.67;11.25;;;;;;;15.80;98.34;101936.59;5042420;28;20052;-57
2022/03/21 11:15:24;;;;;;;14.30;10.85;;;;;;;16.01;99.17;101953.28;5045442;28;20833;-58
2022/03/21 11:17:50;;;;;;;18.23;10.05;;;;;;;16.15;96.04;101949.03;5046566;28;20089;-58
2022/03/21 11:20:15;;;;;;;16.15;10.60;;;;;;;16.15;97.07;101927.81;5024236;28;20027;-58
2022/03/21 11:22:42;;;;;;;16.33;9.65;;;;;;;16.43;98.43;101952.97;5027166;28;20136;-58
2022/03/21 11:25:17;;;;;;;12.40;8.60;;;;;;;16.61;94.18;101950.31;5027236;28;20032;-58
2022/03/21 11:28:04;;;;;;;22.73;9.93;;;;;;;16.76;92.19;101949.50;5027767;28;20041;-58
2022/03/21 11:30:47;;;;;;;12.65;8.73;;;;;;;16.88;84.80;101937.41;5028618;28;20095;-58
2022/03/21 11:33:46;;;;;;;9.68;7.22;;;;;;;16.83;82.73;101939.47;5027581;28;20029;-58
2022/03/21 11:36:12;;;;;;;16.65;8.52;;;;;;;16.90;84.50;101943.50;5026608;28;20029;-58